Latest Weather Observations for Pallamana

IDS60901

Issued at 12:15 pm CDT Saturday 1 November 2014 (issued every 10 minutes, with the page automatically refreshed every 10 minutes)

About weather observations | Map of Adelaide area stations | Latest observations for Adelaide area | Other Formats
Station Details ID: 024584 Name: PALLAMANA AERODROME Lat: -35.06 Lon: 139.23 Height: 45.0 m
Data from the previous 72 hours. | See also: Recent months at Pallamana
Date/Time
CDT
Tmp

°C
App
Tmp
°C
Dew
Point
°C
Rel
Hum
%
Delta-T

°C
Wind Press
QNH
hPa
Press
MSL
hPa
Rain
since
9 am
mm
Dir
 
Spd
km/h
Gust
km/h
Spd
kts
Gust
kts
01/12:03pm 17.8 8.1 0.4 31 7.6 SW 41 59 22 32 1016.1 1016.0 0.0
01/12:00pm 17.6 7.8 -0.3 29 7.7 SW 41 56 22 30 1016.1 1016.0 0.0
01/11:40am 17.8 8.6 1.5 33 7.3 SW 39 57 21 31 1015.9 1015.8 0.0
01/11:30am 16.5 5.8 2.3 38 6.4 SW 48 63 26 34 1015.9 1015.8 0.0
01/11:00am 16.5 6.6 2.9 40 6.2 SW 44 65 24 35 1015.6 1015.5 0.0
01/10:54am 17.3 7.0 0.6 32 7.3 SW 44 65 24 35 1015.4 1015.3 0.0
01/10:30am 16.3 6.2 0.6 34 6.8 WSW 43 54 23 29 1015.2 1015.1 0.0
01/10:06am 15.6 6.7 3.3 43 5.6 SW 39 57 21 31 1014.9 1014.8 0.0
01/10:00am 16.5 6.7 2.0 37 6.5 WSW 43 59 23 32 1014.7 1014.6 0.0
01/09:30am 16.2 5.6 0.5 34 6.8 WSW 46 59 25 32 1014.3 1014.2 0.0
01/09:12am 15.6 5.7 2.7 42 5.8 SW 44 63 24 34 1014.1 1014.0 0.0
01/09:00am 14.9 5.6 3.2 45 5.3 SW 41 56 22 30 1013.8 1013.7 1.8
01/08:30am 14.4 6.4 5.5 55 4.2 WSW 37 46 20 25 1013.3 1013.2 1.8
01/08:00am 13.5 6.4 6.4 62 3.4 WSW 33 46 18 25 1012.7 1012.6 1.8
01/07:30am 12.5 6.4 6.7 68 2.8 WSW 28 39 15 21 1012.3 1012.2 1.8
01/07:00am 11.6 6.2 6.5 71 2.4 W 24 33 13 18 1011.6 1011.5 1.8
01/06:30am 11.1 6.4 6.2 72 2.3 W 20 26 11 14 1010.9 1010.9 1.8
01/06:00am 11.1 6.3 7.4 78 1.8 W 22 28 12 15 1010.4 1010.4 1.8
01/05:30am 11.6 5.8 8.1 79 1.7 WSW 28 37 15 20 1009.6 1009.6 1.8
01/05:00am 12.4 7.1 9.7 83 1.4 WSW 28 41 15 22 1009.1 1009.1 1.8
01/04:30am 12.4 6.6 10.9 90 0.8 SW 32 46 17 25 1008.7 1008.7 1.8
01/04:00am 13.5 8.4 12.0 91 0.8 WSW 30 43 16 23 1007.8 1007.8 1.0
01/03:58am 13.5 8.8 12.0 91 0.8 WSW 28 43 15 23 1007.7 1007.7 1.0
01/03:30am 13.5 10.6 12.2 92 0.7 SW 19 24 10 13 1007.3 1007.3 0.6
01/03:00am 15.2 11.7 10.1 71 2.7 W 19 26 10 14 1006.8 1006.8 0.0
01/02:30am 15.2 9.4 9.4 68 3.0 W 30 39 16 21 1006.4 1006.4 0.0
01/02:00am 15.3 9.2 9.7 69 2.9 W 32 41 17 22 1006.3 1006.3 0.0
01/01:30am 15.8 8.8 10.1 69 3.0 W 37 46 20 25 1006.5 1006.5 0.0
01/01:00am 15.2 10.9 12.1 82 1.7 WSW 26 35 14 19 1006.2 1006.2 0.0
01/12:30am 15.0 10.3 11.9 82 1.7 WSW 28 35 15 19 1006.0 1006.0 0.0
01/12:00am 15.6 11.3 10.9 73 2.5 WSW 24 33 13 18 1005.8 1005.8 0.0
 
Date/Time
CDT
Tmp

°C
App
Tmp
°C
Dew
Point
°C
Rel
Hum
%
Delta-T

°C
Wind Press
QNH
hPa
Press
MSL
hPa
Rain
since
9 am
mm
Dir
 
Spd
km/h
Gust
km/h
Spd
kts
Gust
kts
31/11:30pm 15.4 11.8 10.5 72 2.6 WSW 20 26 11 14 1005.0 1005.0 0.0
31/11:00pm 15.5 11.5 10.6 72 2.6 SW 22 30 12 16 1005.0 1005.0 0.0
31/10:30pm 15.9 12.1 11.3 74 2.5 SSW 22 30 12 16 1005.3 1005.3 0.0
31/10:14pm 17.2 11.7 10.7 65 3.5 SW 30 43 16 23 1005.4 1005.4 0.0
31/10:00pm 17.4 14.4 11.8 69 3.1 SW 19 24 10 13 1005.7 1005.7 0.0
31/09:30pm 17.3 13.8 12.2 72 2.8 SSW 22 30 12 16 1005.0 1005.0 0.0
31/09:00pm 17.3 11.8 12.4 73 2.7 SW 33 43 18 23 1005.1 1005.1 0.0
31/08:30pm 17.0 9.7 12.7 76 2.4 SW 43 63 23 34 1003.8 1003.8 0.0
31/08:19pm 17.0 10.5 12.9 77 2.3 SW 39 57 21 31 1003.2 1003.2 0.0
31/08:00pm 17.0 10.9 13.1 78 2.2 SSW 37 48 20 26 1002.6 1002.6 0.0
31/07:50pm 17.3 11.3 13.2 77 2.3 SSW 37 56 20 30 1002.4 1002.4 0.0
31/07:30pm 18.4 11.7 13.5 73 2.8 SSW 41 56 22 30 1001.8 1001.8 0.0
31/07:00pm 22.5 17.8 10.8 47 6.5 SSW 26 39 14 21 1001.4 1001.4 0.0
31/06:56pm 22.9 17.7 10.4 45 6.9 SSW 28 39 15 21 1001.2 1001.2 0.0
31/06:30pm 28.0 20.0 0.3 16 13.2 W 32 48 17 26 1000.0 1000.0 0.0
31/06:00pm 29.4 21.3 0.0 15 14.1 W 32 46 17 25 999.2 999.1 0.0
31/05:30pm 31.5 24.1 -0.4 13 15.4 WSW 28 43 15 23 998.9 998.8 0.0
31/05:00pm 33.1 26.6 -2.1 10 16.6 W 22 32 12 17 998.7 998.6 0.0
31/04:30pm 33.8 26.5 -3.0 9 17.3 W 26 35 14 19 998.8 998.7 0.0
31/04:00pm 35.5 27.2 -4.7 7 18.5 W 30 44 16 24 999.1 999.0 0.0
31/03:30pm 35.4 27.8 -2.2 9 18.1 W 28 41 15 22 999.4 999.3 0.0
31/03:00pm 35.2 26.9 -1.8 9 17.9 WNW 32 46 17 25 999.8 999.8 0.0
31/02:50pm 34.9 26.5 -2.8 9 17.8 WNW 32 54 17 29 999.8 999.8 0.0
31/02:30pm 35.4 26.5 -1.7 9 18.0 WNW 35 50 19 27 1000.0 1000.0 0.0
31/02:00pm 35.6 27.3 -1.6 9 18.0 NW 32 46 17 25 1000.1 1000.1 0.0
31/01:52pm 36.0 27.9 1.0 11 17.7 NNW 33 54 18 29 1000.1 1000.1 0.0
31/01:51pm 35.6 26.7 0.8 11 17.5 N 37 54 20 29 1000.2 1000.2 0.0
31/01:36pm 36.7 28.8 1.1 10 18.1 NW 32 50 17 27 1000.4 1000.4 0.0
31/01:30pm 36.4 27.3 -3.3 8 18.9 WNW 35 50 19 27 1000.5 1000.5 0.0
31/01:20pm 37.3 28.8 -3.6 7 19.4 NNW 32 74 17 40 1000.2 1000.2 0.0
31/01:09pm 36.6 29.2 -0.6 9 18.4 NNW 28 56 15 30 1001.0 1001.0 0.0
31/01:00pm 34.3 26.7 0.8 12 16.7 ENE 30 39 16 21 1001.1 1001.1 0.0
31/12:30pm 33.6 26.3 -0.2 11 16.6 NNE 28 37 15 20 1002.1 1002.1 0.0
31/12:00pm 33.0 25.2 -0.5 11 16.3 NNE 30 41 16 22 1003.1 1003.1 0.0
31/11:30am 31.5 23.2 -0.1 13 15.3 N 33 46 18 25 1003.8 1003.8 0.0
31/11:00am 29.3 19.8 -0.4 14 14.0 NNE 39 50 21 27 1004.3 1004.3 0.0
31/10:30am 28.4 18.9 -1.0 14 13.7 NNE 39 48 21 26 1004.9 1004.9 0.0
31/10:00am 28.1 19.1 0.0 16 13.3 N 37 50 20 27 1005.4 1005.4 0.0
31/09:30am 25.8 18.3 1.2 20 11.7 NNE 30 44 16 24 1006.0 1006.0 0.0
31/09:00am 21.9 16.7 5.3 34 8.3 NNE 22 32 12 17 1006.6 1006.6 0.0
31/08:30am 20.2 15.4 5.7 38 7.2 NNE 20 30 11 16 1007.1 1007.1 0.0
31/08:00am 17.3 14.2 7.4 52 5.0 NNE 13 19 7 10 1007.4 1007.4 0.0
31/07:30am 12.9 11.3 8.9 76 2.0 N 7 13 4 7 1007.4 1007.4 0.0
31/07:00am 10.4 8.6 7.9 84 1.2 NNW 7 9 4 5 1007.7 1007.7 0.0
31/06:30am 8.8 5.9 6.4 85 1.1 N 11 13 6 7 1007.8 1007.8 0.0
31/06:00am 8.4 5.8 6.2 86 1.0 N 9 11 5 6 1007.9 1007.9 0.0
31/05:30am 7.7 5.5 5.5 86 1.0 NNW 6 7 3 4 1008.5 1008.5 0.0
31/05:00am 8.6 6.5 6.0 84 1.2 NNW 6 7 3 4 1008.8 1008.8 0.0
31/04:30am 10.9 9.1 8.0 82 1.4 NNW 7 9 4 5 1009.0 1009.0 0.0
31/04:00am 12.6 10.6 8.6 76 2.0 NW 9 11 5 6 1009.1 1009.1 0.0
31/03:30am 12.2 11.5 8.6 78 1.8 WNW 2 7 1 4 1009.4 1009.4 0.0
31/03:00am 12.2 10.7 9.2 82 1.5 WNW 7 11 4 6 1009.6 1009.6 0.0
31/02:30am 11.6 11.4 9.0 84 1.3 CALM 0 0 0 0 1010.0 1010.0 0.0
31/02:00am 13.2 12.1 9.9 80 1.7 NW 6 11 3 6 1010.6 1010.6 0.0
31/01:30am 14.4 11.7 10.4 77 2.1 WSW 15 19 8 10 1011.3 1011.2 0.0
31/01:00am 14.0 11.3 10.2 78 2.0 WSW 15 17 8 9 1011.7 1011.6 0.0
31/12:30am 12.9 11.6 9.8 81 1.6 WSW 7 11 4 6 1011.9 1011.8 0.0
31/12:00am 12.8 10.7 9.9 82 1.5 SW 11 13 6 7 1012.2 1012.1 0.0
 
Date/Time
CDT
Tmp

°C
App
Tmp
°C
Dew
Point
°C
Rel
Hum
%
Delta-T

°C
Wind Press
QNH
hPa
Press
MSL
hPa
Rain
since
9 am
mm
Dir
 
Spd
km/h
Gust
km/h
Spd
kts
Gust
kts
30/11:30pm 13.2 12.1 9.9 80 1.7 WSW 6 9 3 5 1012.7 1012.6 0.0
30/11:00pm 13.8 12.2 10.1 78 1.9 WSW 9 11 5 6 1012.9 1012.8 0.0
30/10:30pm 13.1 12.0 10.0 81 1.6 SW 6 11 3 6 1013.3 1013.2 0.0
30/10:00pm 13.4 11.3 9.7 78 1.9 WSW 11 13 6 7 1013.5 1013.4 0.0
30/09:30pm 13.6 12.4 9.5 76 2.1 SSW 6 7 3 4 1013.4 1013.3 0.0
30/09:00pm 14.5 12.9 10.1 75 2.3 SSW 9 11 5 6 1013.2 1013.1 0.0
30/08:30pm 15.7 13.0 10.2 70 2.9 SW 15 19 8 10 1012.8 1012.7 0.0
30/08:00pm 16.4 13.6 9.9 65 3.4 SW 15 19 8 10 1012.7 1012.6 0.0
30/07:30pm 17.6 14.4 10.1 61 4.0 SSW 17 24 9 13 1012.7 1012.6 0.0
30/07:00pm 19.4 15.9 10.1 55 5.0 S 19 24 10 13 1012.3 1012.2 0.0
30/06:30pm 20.6 16.9 10.3 51 5.6 SSW 20 30 11 16 1012.4 1012.3 0.0
30/06:00pm 22.9 18.4 9.9 43 7.1 SSW 24 32 13 17 1012.2 1012.1 0.0
30/05:30pm 25.9 21.8 8.8 34 9.3 S 20 28 11 15 1012.1 1012.0 0.0
30/05:00pm 28.1 24.1 4.7 22 12.0 S 15 22 8 12 1011.7 1011.6 0.0
30/04:30pm 28.2 25.6 5.9 24 11.7 S 9 17 5 9 1011.8 1011.7 0.0
30/04:00pm 28.0 24.8 5.2 23 11.8 WSW 11 19 6 10 1012.2 1012.1 0.0
30/03:30pm 27.6 24.5 5.7 24 11.4 SSE 11 17 6 9 1012.3 1012.2 0.0
30/03:00pm 26.8 24.3 6.7 28 10.6 SSW 9 17 5 9 1013.0 1012.9 0.0
30/02:30pm 26.8 22.8 6.7 28 10.6 S 17 26 9 14 1013.4 1013.3 0.0
30/02:00pm 26.4 23.0 6.0 27 10.6 E 13 24 7 13 1013.6 1013.5 0.0
30/01:30pm 25.0 22.0 5.9 29 9.8 S 11 17 6 9 1014.1 1014.0 0.0
30/01:00pm 25.0 22.4 6.2 30 9.7 NNE 9 15 5 8 1014.5 1014.4 0.0
30/12:30pm 24.0 21.6 7.1 33 8.8 S 9 15 5 8 1015.0 1014.9 0.0
30/12:00pm 22.2 18.8 6.0 35 8.2 N 13 20 7 11 1015.4 1015.3 0.0
30/11:30am 21.2 18.1 8.9 45 6.5 N 15 24 8 13 1015.8 1015.7 0.0
30/11:00am 19.8 17.5 9.0 49 5.7 N 11 20 6 11 1016.2 1016.1 0.0
30/10:30am 18.8 17.0 9.5 54 4.9 NE 9 13 5 7 1016.8 1016.7 0.0
30/10:00am 17.6 15.5 9.8 60 4.1 NNE 11 20 6 11 1016.9 1016.8 0.0
30/09:30am 16.7 14.2 9.6 63 3.7 N 13 20 7 11 1016.9 1016.8 0.0
30/09:00am 15.4 14.6 9.6 68 3.0 N 4 9 2 5 1017.6 1017.5 0.0
30/08:30am 14.8 14.6 10.4 75 2.3 SE 2 6 1 3 1017.9 1017.8 0.0
30/08:00am 13.7 13.9 10.4 80 1.7 CALM 0 4 0 2 1017.5 1017.4 0.0
30/07:30am 12.3 12.0 10.0 86 1.2 SW 2 6 1 3 1017.3 1017.2 0.0
30/07:00am 9.9 7.9 8.7 92 0.6 NNW 9 13 5 7 1016.4 1016.3 0.0
30/06:30am 9.4 7.6 7.9 90 0.7 NNW 7 9 4 5 1016.2 1016.1 0.0
30/06:00am 10.7 8.4 8.9 89 0.9 N 11 13 6 7 1016.2 1016.1 0.0
30/05:30am 11.6 11.1 9.2 85 1.2 SW 2 6 1 3 1016.5 1016.4 0.0
30/05:00am 11.7 10.6 10.1 90 0.8 SW 6 7 3 4 1016.6 1016.5 0.0
30/04:30am 10.7 10.6 9.5 92 0.6 CALM 0 0 0 0 1016.1 1016.0 0.0
30/04:00am 12.9 13.1 10.4 85 1.3 CALM 0 0 0 0 1015.8 1015.7 0.0
30/03:30am 13.4 13.5 10.3 81 1.6 CALM 0 0 0 0 1016.0 1015.9 0.0
30/03:00am 13.7 14.0 10.8 83 1.5 CALM 0 0 0 0 1016.1 1016.0 0.0
30/02:30am 13.6 12.7 10.7 82 1.5 ENE 6 7 3 4 1016.3 1016.2 0.0
30/02:00am 14.4 14.4 11.0 80 1.8 SE 2 6 1 3 1016.8 1016.7 0.0
30/01:30am 14.5 13.5 11.1 80 1.8 ESE 7 11 4 6 1016.9 1016.8 0.0
30/01:00am 14.7 13.4 11.1 79 1.9 S 9 11 5 6 1017.3 1017.2 0.0
30/12:30am 15.2 13.9 11.3 77 2.1 S 9 9 5 5 1017.7 1017.6 0.0
30/12:00am 15.2 13.9 11.3 77 2.1 S 9 13 5 7 1018.0 1017.9 0.0
 
Date/Time
CDT
Tmp

°C
App
Tmp
°C
Dew
Point
°C
Rel
Hum
%
Delta-T

°C
Wind Press
QNH
hPa
Press
MSL
hPa
Rain
since
9 am
mm
Dir
 
Spd
km/h
Gust
km/h
Spd
kts
Gust
kts
29/11:30pm 15.2 13.9 11.1 76 2.2 S 9 13 5 7 1017.9 1017.8 0.0
29/11:00pm 14.9 13.4 10.7 76 2.2 S 9 13 5 7 1018.1 1018.0 0.0
29/10:30pm 15.1 12.6 11.2 77 2.1 S 15 17 8 9 1018.1 1018.0 0.0
29/10:00pm 15.5 12.7 11.4 76 2.2 S 17 22 9 12 1018.0 1017.9 0.0
29/09:30pm 15.6 12.5 11.5 76 2.2 S 19 30 10 16 1018.1 1018.0 0.0
29/09:00pm 15.2 13.1 11.3 77 2.1 S 13 19 7 10 1017.9 1017.8 0.0
29/08:30pm 15.5 12.7 11.2 75 2.3 S 17 24 9 13 1017.6 1017.5 0.0
29/08:00pm 16.1 12.7 11.1 72 2.7 SSW 20 28 11 15 1017.6 1017.5 0.0
29/07:30pm 17.0 12.6 10.4 65 3.5 SSW 24 32 13 17 1017.0 1016.9 0.0
29/07:00pm 18.4 15.1 9.7 57 4.6 S 17 28 9 15 1016.9 1016.8 0.0
29/06:30pm 18.7 14.7 10.3 58 4.5 S 22 30 12 16 1016.4 1016.3 0.0
29/06:00pm 19.9 14.6 9.8 52 5.4 S 28 39 15 21 1016.3 1016.2 0.0
29/05:30pm 21.9 16.6 9.9 46 6.5 S 28 35 15 19 1015.9 1015.8 0.0
29/05:00pm 23.1 18.5 9.7 42 7.3 S 24 35 13 19 1015.6 1015.5 0.0
29/04:30pm 23.9 19.9 9.1 39 8.0 S 20 32 11 17 1015.7 1015.6 0.0
29/04:00pm 23.2 17.7 9.1 40 7.6 SSW 28 39 15 21 1015.5 1015.4 0.0
29/03:30pm 27.3 22.8 4.1 22 11.7 W 17 28 9 15 1015.6 1015.5 0.0
29/03:00pm 26.6 21.6 3.4 22 11.5 W 19 32 10 17 1015.9 1015.8 0.0
29/02:30pm 26.1 22.5 4.8 25 10.8 NNW 13 17 7 9 1016.1 1016.0 0.0
29/02:00pm 26.1 22.5 5.1 26 10.7 N 13 30 7 16 1016.4 1016.3 0.0
29/01:30pm 23.9 20.4 7.0 33 8.8 W 15 20 8 11 1017.1 1017.0 0.0
29/01:00pm 24.2 20.1 7.7 34 8.7 NNE 19 30 10 16 1017.4 1017.3 0.0
29/12:30pm 22.3 20.1 8.0 40 7.5 NW 9 20 5 11 1018.1 1018.0 0.0

Latest Capital City Observations: Canberra | Sydney | Melbourne | Brisbane | Adelaide | Perth | Hobart | Darwin

Other Formats:

Comma delimited format used in spreadsheet applications
http://www.bom.gov.au/fwo/IDS60901/IDS60901.95818.axf

JavaScript Object Notation format (JSON) in row-major order
http://www.bom.gov.au/fwo/IDS60901/IDS60901.95818.json